sensor_id;sensor_type;location;lat;lon;timestamp;temperature;humidity
6468;DHT22;3267;48.794;9.928;2024-02-14T05:18:32;9.10;99.90
6468;DHT22;3267;48.794;9.928;2024-02-14T05:23:24;8.90;99.90
6468;DHT22;3267;48.794;9.928;2024-02-14T05:25:49;9.00;99.90
6468;DHT22;3267;48.794;9.928;2024-02-14T05:28:16;9.00;99.90
6468;DHT22;3267;48.794;9.928;2024-02-14T05:33:10;9.30;99.90
6468;DHT22;3267;48.794;9.928;2024-02-14T05:35:36;8.90;99.90
6468;DHT22;3267;48.794;9.928;2024-02-14T05:38:02;8.80;99.90
6468;DHT22;3267;48.794;9.928;2024-02-14T05:40:27;8.70;99.90
6468;DHT22;3267;48.794;9.928;2024-02-14T05:42:53;8.70;99.90
6468;DHT22;3267;48.794;9.928;2024-02-14T05:47:45;8.60;99.90
6468;DHT22;3267;48.794;9.928;2024-02-14T05:52:38;8.80;99.90
6468;DHT22;3267;48.794;9.928;2024-02-14T05:55:04;8.80;99.90
6468;DHT22;3267;48.794;9.928;2024-02-14T05:57:30;8.80;99.90
6468;DHT22;3267;48.794;9.928;2024-02-14T05:59:56;11.10;99.90
6468;DHT22;3267;48.794;9.928;2024-02-14T06:02:21;11.60;99.90
6468;DHT22;3267;48.794;9.928;2024-02-14T06:04:47;8.90;99.90
6468;DHT22;3267;48.794;9.928;2024-02-14T06:07:13;8.90;99.90
6468;DHT22;3267;48.794;9.928;2024-02-14T06:09:39;9.00;99.90
6468;DHT22;3267;48.794;9.928;2024-02-14T06:12:06;9.80;99.90
6468;DHT22;3267;48.794;9.928;2024-02-14T06:14:31;9.80;99.90
6468;DHT22;3267;48.794;9.928;2024-02-14T06:17:02;9.70;99.90
6468;DHT22;3267;48.794;9.928;2024-02-14T06:19:29;10.00;99.90
6468;DHT22;3267;48.794;9.928;2024-02-14T06:21:56;9.90;99.90
6468;DHT22;3267;48.794;9.928;2024-02-14T06:24:22;9.90;99.90
6468;DHT22;3267;48.794;9.928;2024-02-14T06:26:48;11.10;99.90
6468;DHT22;3267;48.794;9.928;2024-02-14T06:29:14;9.70;99.90
6468;DHT22;3267;48.794;9.928;2024-02-14T06:31:39;12.30;99.90
6468;DHT22;3267;48.794;9.928;2024-02-14T06:34:05;12.00;99.90
6468;DHT22;3267;48.794;9.928;2024-02-14T06:36:32;9.70;99.90
6468;DHT22;3267;48.794;9.928;2024-02-14T06:38:58;10.90;99.90
6468;DHT22;3267;48.794;9.928;2024-02-14T06:41:24;10.10;99.90
6468;DHT22;3267;48.794;9.928;2024-02-14T06:43:49;10.20;99.90
6468;DHT22;3267;48.794;9.928;2024-02-14T06:46:18;10.40;99.90
6468;DHT22;3267;48.794;9.928;2024-02-14T06:48:43;10.40;99.90
6468;DHT22;3267;48.794;9.928;2024-02-14T06:51:10;10.30;99.90
6468;DHT22;3267;48.794;9.928;2024-02-14T06:53:35;11.00;99.90
6468;DHT22;3267;48.794;9.928;2024-02-14T06:56:01;10.10;99.90
6468;DHT22;3267;48.794;9.928;2024-02-14T06:58:27;10.10;99.90
6468;DHT22;3267;48.794;9.928;2024-02-14T07:00:52;9.90;99.90
6468;DHT22;3267;48.794;9.928;2024-02-14T07:03:18;10.00;99.90
6468;DHT22;3267;48.794;9.928;2024-02-14T07:05:47;11.90;99.90
6468;DHT22;3267;48.794;9.928;2024-02-14T07:08:12;10.20;99.90
6468;DHT22;3267;48.794;9.928;2024-02-14T07:10:41;10.20;99.90
6468;DHT22;3267;48.794;9.928;2024-02-14T07:13:06;10.10;99.90
6468;DHT22;3267;48.794;9.928;2024-02-14T07:15:32;10.10;99.90
6468;DHT22;3267;48.794;9.928;2024-02-14T07:17:58;12.10;99.90
6468;DHT22;3267;48.794;9.928;2024-02-14T07:20:24;10.10;99.90
6468;DHT22;3267;48.794;9.928;2024-02-14T07:22:53;10.00;99.90
6468;DHT22;3267;48.794;9.928;2024-02-14T07:25:22;10.00;99.90
6468;DHT22;3267;48.794;9.928;2024-02-14T07:27:48;10.00;99.90
6468;DHT22;3267;48.794;9.928;2024-02-14T07:30:18;9.90;99.90
6468;DHT22;3267;48.794;9.928;2024-02-14T07:32:44;10.00;99.90
6468;DHT22;3267;48.794;9.928;2024-02-14T07:35:10;10.00;99.90
6468;DHT22;3267;48.794;9.928;2024-02-14T07:37:36;10.00;99.90
6468;DHT22;3267;48.794;9.928;2024-02-14T07:40:03;10.00;99.90
6468;DHT22;3267;48.794;9.928;2024-02-14T07:42:29;9.90;99.90
6468;DHT22;3267;48.794;9.928;2024-02-14T07:44:54;9.90;99.90
6468;DHT22;3267;48.794;9.928;2024-02-14T07:47:21;9.90;99.90
6468;DHT22;3267;48.794;9.928;2024-02-14T07:49:47;9.80;99.90
6468;DHT22;3267;48.794;9.928;2024-02-14T07:52:13;9.90;99.90
6468;DHT22;3267;48.794;9.928;2024-02-14T07:54:39;9.80;99.90
6468;DHT22;3267;48.794;9.928;2024-02-14T07:57:04;10.00;99.90
6468;DHT22;3267;48.794;9.928;2024-02-14T07:59:32;9.80;99.90
6468;DHT22;3267;48.794;9.928;2024-02-14T08:01:57;9.80;99.90
6468;DHT22;3267;48.794;9.928;2024-02-14T08:04:23;9.70;99.90
6468;DHT22;3267;48.794;9.928;2024-02-14T08:06:49;9.70;99.90
6468;DHT22;3267;48.794;9.928;2024-02-14T08:09:15;9.60;99.90
6468;DHT22;3267;48.794;9.928;2024-02-14T08:11:41;9.60;99.90
6468;DHT22;3267;48.794;9.928;2024-02-14T08:14:08;9.70;99.90
6468;DHT22;3267;48.794;9.928;2024-02-14T08:19:02;9.70;99.90
6468;DHT22;3267;48.794;9.928;2024-02-14T08:21:28;9.70;99.90
6468;DHT22;3267;48.794;9.928;2024-02-14T08:23:54;10.50;99.90
6468;DHT22;3267;48.794;9.928;2024-02-14T08:26:23;9.70;99.90
6468;DHT22;3267;48.794;9.928;2024-02-14T08:28:49;9.80;99.90
6468;DHT22;3267;48.794;9.928;2024-02-14T08:31:19;9.80;99.90
6468;DHT22;3267;48.794;9.928;2024-02-14T08:33:45;9.90;99.90
6468;DHT22;3267;48.794;9.928;2024-02-14T08:36:11;9.90;99.90
6468;DHT22;3267;48.794;9.928;2024-02-14T08:38:36;10.20;99.90
6468;DHT22;3267;48.794;9.928;2024-02-14T08:41:02;10.10;99.90
6468;DHT22;3267;48.794;9.928;2024-02-14T08:43:29;10.30;99.90
6468;DHT22;3267;48.794;9.928;2024-02-14T08:45:55;10.40;99.90
6468;DHT22;3267;48.794;9.928;2024-02-14T08:48:21;10.50;99.90
6468;DHT22;3267;48.794;9.928;2024-02-14T08:50:47;10.50;99.90
6468;DHT22;3267;48.794;9.928;2024-02-14T08:53:13;10.50;99.90
6468;DHT22;3267;48.794;9.928;2024-02-14T08:55:42;10.50;99.90
6468;DHT22;3267;48.794;9.928;2024-02-14T08:58:08;10.60;99.90
6468;DHT22;3267;48.794;9.928;2024-02-14T09:00:37;10.60;99.90
6468;DHT22;3267;48.794;9.928;2024-02-14T09:03:04;10.50;99.90
6468;DHT22;3267;48.794;9.928;2024-02-14T09:05:30;10.60;99.90
6468;DHT22;3267;48.794;9.928;2024-02-14T09:07:56;10.60;99.90
6468;DHT22;3267;48.794;9.928;2024-02-14T09:10:21;10.50;99.90
6468;DHT22;3267;48.794;9.928;2024-02-14T09:12:47;10.50;99.90
6468;DHT22;3267;48.794;9.928;2024-02-14T09:15:13;12.90;99.90
6468;DHT22;3267;48.794;9.928;2024-02-14T09:17:39;10.60;99.90
6468;DHT22;3267;48.794;9.928;2024-02-14T09:20:10;10.60;99.90
6468;DHT22;3267;48.794;9.928;2024-02-14T09:22:36;10.80;99.90
6468;DHT22;3267;48.794;9.928;2024-02-14T09:25:02;10.50;99.90
6468;DHT22;3267;48.794;9.928;2024-02-14T09:27:34;10.60;99.90
6468;DHT22;3267;48.794;9.928;2024-02-14T09:30:01;13.30;99.90
6468;DHT22;3267;48.794;9.928;2024-02-14T09:32:33;10.70;99.90
6468;DHT22;3267;48.794;9.928;2024-02-14T09:34:59;12.70;99.90
6468;DHT22;3267;48.794;9.928;2024-02-14T09:37:26;10.80;99.90
6468;DHT22;3267;48.794;9.928;2024-02-14T09:39:52;10.80;99.90
6468;DHT22;3267;48.794;9.928;2024-02-14T09:42:24;10.90;99.90
6468;DHT22;3267;48.794;9.928;2024-02-14T09:44:52;12.20;99.90
6468;DHT22;3267;48.794;9.928;2024-02-14T09:47:24;11.00;99.90
6468;DHT22;3267;48.794;9.928;2024-02-14T09:49:52;12.00;99.90
6468;DHT22;3267;48.794;9.928;2024-02-14T09:52:19;11.10;99.90
6468;DHT22;3267;48.794;9.928;2024-02-14T09:54:46;11.10;99.90
6468;DHT22;3267;48.794;9.928;2024-02-14T09:57:13;13.80;99.90
6468;DHT22;3267;48.794;9.928;2024-02-14T09:59:39;11.20;99.90
6468;DHT22;3267;48.794;9.928;2024-02-14T10:02:05;11.30;99.90
6468;DHT22;3267;48.794;9.928;2024-02-14T10:04:31;11.40;99.90
6468;DHT22;3267;48.794;9.928;2024-02-14T10:06:56;12.30;99.90
6468;DHT22;3267;48.794;9.928;2024-02-14T10:09:23;11.40;99.90
6468;DHT22;3267;48.794;9.928;2024-02-14T10:11:49;11.30;99.90
6468;DHT22;3267;48.794;9.928;2024-02-14T10:14:14;11.40;99.90
6468;DHT22;3267;48.794;9.928;2024-02-14T10:19:17;11.50;99.90
6468;DHT22;3267;48.794;9.928;2024-02-14T10:21:43;11.60;99.90
6468;DHT22;3267;48.794;9.928;2024-02-14T10:24:09;11.60;99.90
6468;DHT22;3267;48.794;9.928;2024-02-14T10:26:37;11.60;99.90
6468;DHT22;3267;48.794;9.928;2024-02-14T10:29:03;11.70;99.90
6468;DHT22;3267;48.794;9.928;2024-02-14T10:31:28;11.90;99.90
6468;DHT22;3267;48.794;9.928;2024-02-14T10:33:55;12.30;99.90
6468;DHT22;3267;48.794;9.928;2024-02-14T10:36:22;12.30;99.90
6468;DHT22;3267;48.794;9.928;2024-02-14T10:38:50;12.60;99.90
6468;DHT22;3267;48.794;9.928;2024-02-14T10:41:17;12.40;99.90
6468;DHT22;3267;48.794;9.928;2024-02-14T10:43:43;12.50;99.90
6468;DHT22;3267;48.794;9.928;2024-02-14T10:46:23;12.60;99.90
6468;DHT22;3267;48.794;9.928;2024-02-14T10:48:58;12.60;99.90
6468;DHT22;3267;48.794;9.928;2024-02-14T10:51:30;12.70;99.90
6468;DHT22;3267;48.794;9.928;2024-02-14T10:53:57;12.70;99.90
6468;DHT22;3267;48.794;9.928;2024-02-14T10:56:28;13.50;99.90
6468;DHT22;3267;48.794;9.928;2024-02-14T10:58:56;12.90;99.90
6468;DHT22;3267;48.794;9.928;2024-02-14T11:01:25;13.10;99.90
6468;DHT22;3267;48.794;9.928;2024-02-14T11:03:52;13.20;99.90
6468;DHT22;3267;48.794;9.928;2024-02-14T11:06:18;13.40;99.90
6468;DHT22;3267;48.794;9.928;2024-02-14T11:09:03;13.50;99.90
6468;DHT22;3267;48.794;9.928;2024-02-14T11:11:36;14.00;99.90
6468;DHT22;3267;48.794;9.928;2024-02-14T11:14:04;14.10;99.90
6468;DHT22;3267;48.794;9.928;2024-02-14T11:16:31;14.10;99.90
6468;DHT22;3267;48.794;9.928;2024-02-14T11:19:12;14.20;99.90
6468;DHT22;3267;48.794;9.928;2024-02-14T11:24:11;14.30;99.90
6468;DHT22;3267;48.794;9.928;2024-02-14T11:26:48;15.00;99.90
6468;DHT22;3267;48.794;9.928;2024-02-14T11:29:19;14.20;99.90
6468;DHT22;3267;48.794;9.928;2024-02-14T11:31:45;14.40;99.90
6468;DHT22;3267;48.794;9.928;2024-02-14T11:34:12;14.40;99.90
6468;DHT22;3267;48.794;9.928;2024-02-14T11:36:41;16.20;99.90
6468;DHT22;3267;48.794;9.928;2024-02-14T11:39:08;14.40;99.90
6468;DHT22;3267;48.794;9.928;2024-02-14T11:41:34;14.40;99.90
6468;DHT22;3267;48.794;9.928;2024-02-14T11:44:06;14.40;99.90
6468;DHT22;3267;48.794;9.928;2024-02-14T11:46:33;14.80;99.90
6468;DHT22;3267;48.794;9.928;2024-02-14T11:49:04;14.90;99.90
6468;DHT22;3267;48.794;9.928;2024-02-14T11:51:30;17.60;99.90
6468;DHT22;3267;48.794;9.928;2024-02-14T11:54:00;14.80;99.90
6468;DHT22;3267;48.794;9.928;2024-02-14T11:56:33;15.40;99.90
6468;DHT22;3267;48.794;9.928;2024-02-14T11:59:00;15.30;99.90
6468;DHT22;3267;48.794;9.928;2024-02-14T12:01:31;14.90;99.90
6468;DHT22;3267;48.794;9.928;2024-02-14T12:03:58;14.90;99.90
6468;DHT22;3267;48.794;9.928;2024-02-14T12:06:36;15.00;99.90
6468;DHT22;3267;48.794;9.928;2024-02-14T12:09:05;15.00;99.90
6468;DHT22;3267;48.794;9.928;2024-02-14T12:11:32;15.10;99.90
6468;DHT22;3267;48.794;9.928;2024-02-14T12:14:05;15.40;99.90
6468;DHT22;3267;48.794;9.928;2024-02-14T12:16:31;15.50;99.90
6468;DHT22;3267;48.794;9.928;2024-02-14T12:19:08;15.50;99.90
6468;DHT22;3267;48.794;9.928;2024-02-14T12:21:39;17.20;99.90
6468;DHT22;3267;48.794;9.928;2024-02-14T12:24:09;15.60;99.90
6468;DHT22;3267;48.794;9.928;2024-02-14T12:26:36;15.40;99.90
6468;DHT22;3267;48.794;9.928;2024-02-14T12:29:03;15.60;99.90
6468;DHT22;3267;48.794;9.928;2024-02-14T12:31:29;15.50;99.90
6468;DHT22;3267;48.794;9.928;2024-02-14T12:33:57;15.50;99.90
6468;DHT22;3267;48.794;9.928;2024-02-14T12:36:28;15.40;99.90
6468;DHT22;3267;48.794;9.928;2024-02-14T12:38:57;15.40;99.90
6468;DHT22;3267;48.794;9.928;2024-02-14T12:41:25;15.60;99.90
6468;DHT22;3267;48.794;9.928;2024-02-14T12:43:55;15.40;99.90
6468;DHT22;3267;48.794;9.928;2024-02-14T12:46:21;15.50;99.90
6468;DHT22;3267;48.794;9.928;2024-02-14T12:48:49;15.50;99.90
6468;DHT22;3267;48.794;9.928;2024-02-14T12:51:15;15.40;99.90
6468;DHT22;3267;48.794;9.928;2024-02-14T12:53:41;15.30;99.90
6468;DHT22;3267;48.794;9.928;2024-02-14T12:56:09;15.40;99.90
6468;DHT22;3267;48.794;9.928;2024-02-14T12:58:36;15.40;99.90
6468;DHT22;3267;48.794;9.928;2024-02-14T13:01:02;15.30;99.90
6468;DHT22;3267;48.794;9.928;2024-02-14T13:03:32;15.50;99.90
6468;DHT22;3267;48.794;9.928;2024-02-14T13:05:59;15.30;99.90
6468;DHT22;3267;48.794;9.928;2024-02-14T13:08:24;15.30;99.90
6468;DHT22;3267;48.794;9.928;2024-02-14T13:10:50;15.30;99.90
6468;DHT22;3267;48.794;9.928;2024-02-14T13:13:15;15.40;99.90
6468;DHT22;3267;48.794;9.928;2024-02-14T13:15:41;15.20;99.90
6468;DHT22;3267;48.794;9.928;2024-02-14T13:18:09;15.30;99.90
6468;DHT22;3267;48.794;9.928;2024-02-14T13:20:35;15.30;99.90
6468;DHT22;3267;48.794;9.928;2024-02-14T13:23:01;15.40;99.90
6468;DHT22;3267;48.794;9.928;2024-02-14T13:25:27;16.70;99.90
6468;DHT22;3267;48.794;9.928;2024-02-14T13:27:55;15.50;99.90
6468;DHT22;3267;48.794;9.928;2024-02-14T13:30:27;18.30;99.90
6468;DHT22;3267;48.794;9.928;2024-02-14T13:32:55;17.90;99.90
6468;DHT22;3267;48.794;9.928;2024-02-14T13:35:21;15.60;99.90
6468;DHT22;3267;48.794;9.928;2024-02-14T13:37:47;17.10;99.90
6468;DHT22;3267;48.794;9.928;2024-02-14T13:40:13;15.60;99.90
6468;DHT22;3267;48.794;9.928;2024-02-14T13:42:38;15.90;99.90
6468;DHT22;3267;48.794;9.928;2024-02-14T13:45:05;15.60;99.90
6468;DHT22;3267;48.794;9.928;2024-02-14T13:47:36;15.60;99.90
6468;DHT22;3267;48.794;9.928;2024-02-14T13:50:05;15.60;99.90
6468;DHT22;3267;48.794;9.928;2024-02-14T13:52:31;15.70;99.90
6468;DHT22;3267;48.794;9.928;2024-02-14T13:54:56;15.80;99.90
6468;DHT22;3267;48.794;9.928;2024-02-14T13:57:22;15.90;99.90
6468;DHT22;3267;48.794;9.928;2024-02-14T13:59:48;15.90;99.90
6468;DHT22;3267;48.794;9.928;2024-02-14T14:02:13;15.90;99.90
6468;DHT22;3267;48.794;9.928;2024-02-14T14:04:39;16.20;99.90
6468;DHT22;3267;48.794;9.928;2024-02-14T14:07:07;17.70;99.90
6468;DHT22;3267;48.794;9.928;2024-02-14T14:09:33;16.70;99.90
6468;DHT22;3267;48.794;9.928;2024-02-14T14:11:59;15.70;99.90
6468;DHT22;3267;48.794;9.928;2024-02-14T14:14:25;17.80;99.90
6468;DHT22;3267;48.794;9.928;2024-02-14T14:16:52;18.80;99.90
6468;DHT22;3267;48.794;9.928;2024-02-14T14:19:18;16.00;99.90
6468;DHT22;3267;48.794;9.928;2024-02-14T14:21:44;15.80;99.90
6468;DHT22;3267;48.794;9.928;2024-02-14T14:24:10;17.40;99.90
6468;DHT22;3267;48.794;9.928;2024-02-14T14:26:36;15.80;99.90
6468;DHT22;3267;48.794;9.928;2024-02-14T14:29:02;15.70;99.90
6468;DHT22;3267;48.794;9.928;2024-02-14T14:31:27;15.70;99.90
6468;DHT22;3267;48.794;9.928;2024-02-14T14:33:53;15.70;99.90
6468;DHT22;3267;48.794;9.928;2024-02-14T14:36:20;15.70;99.90
6468;DHT22;3267;48.794;9.928;2024-02-14T14:38:47;15.90;99.90
6468;DHT22;3267;48.794;9.928;2024-02-14T14:41:12;15.70;99.90
6468;DHT22;3267;48.794;9.928;2024-02-14T14:43:40;16.30;99.90
6468;DHT22;3267;48.794;9.928;2024-02-14T14:46:08;18.20;99.90
6468;DHT22;3267;48.794;9.928;2024-02-14T14:48:34;15.70;99.90
6468;DHT22;3267;48.794;9.928;2024-02-14T14:50:59;15.70;99.90
6468;DHT22;3267;48.794;9.928;2024-02-14T14:53:25;15.90;99.90
6468;DHT22;3267;48.794;9.928;2024-02-14T14:55:55;17.60;99.90
6468;DHT22;3267;48.794;9.928;2024-02-14T14:58:25;15.80;99.90
6468;DHT22;3267;48.794;9.928;2024-02-14T15:00:56;15.90;99.90
6468;DHT22;3267;48.794;9.928;2024-02-14T15:03:22;15.90;99.90
6468;DHT22;3267;48.794;9.928;2024-02-14T15:05:48;17.90;99.90
6468;DHT22;3267;48.794;9.928;2024-02-14T15:08:15;15.90;99.90
6468;DHT22;3267;48.794;9.928;2024-02-14T15:10:49;16.20;99.90
6468;DHT22;3267;48.794;9.928;2024-02-14T15:13:21;16.10;99.90
6468;DHT22;3267;48.794;9.928;2024-02-14T15:15:47;16.60;99.90
6468;DHT22;3267;48.794;9.928;2024-02-14T15:18:13;17.10;99.90
6468;DHT22;3267;48.794;9.928;2024-02-14T15:20:38;16.20;99.90
6468;DHT22;3267;48.794;9.928;2024-02-14T15:23:07;16.40;99.90
6468;DHT22;3267;48.794;9.928;2024-02-14T15:25:34;16.10;99.90
6468;DHT22;3267;48.794;9.928;2024-02-14T15:28:07;16.40;99.90
6468;DHT22;3267;48.794;9.928;2024-02-14T15:30:38;16.40;99.90
6468;DHT22;3267;48.794;9.928;2024-02-14T15:33:23;18.00;99.90
6468;DHT22;3267;48.794;9.928;2024-02-14T15:35:53;16.40;99.90
6468;DHT22;3267;48.794;9.928;2024-02-14T15:38:23;16.10;99.90
6468;DHT22;3267;48.794;9.928;2024-02-14T15:40:50;16.00;99.90
6468;DHT22;3267;48.794;9.928;2024-02-14T15:43:19;15.90;99.90
6468;DHT22;3267;48.794;9.928;2024-02-14T15:45:45;16.50;99.90
6468;DHT22;3267;48.794;9.928;2024-02-14T15:48:11;15.70;99.90
6468;DHT22;3267;48.794;9.928;2024-02-14T15:50:39;15.70;99.90
6468;DHT22;3267;48.794;9.928;2024-02-14T15:53:06;15.80;99.90
6468;DHT22;3267;48.794;9.928;2024-02-14T15:55:32;15.60;99.90
6468;DHT22;3267;48.794;9.928;2024-02-14T15:57:58;18.40;99.90
6468;DHT22;3267;48.794;9.928;2024-02-14T16:00:24;15.60;99.90
6468;DHT22;3267;48.794;9.928;2024-02-14T16:02:53;15.60;99.90
6468;DHT22;3267;48.794;9.928;2024-02-14T16:05:19;17.40;99.90
6468;DHT22;3267;48.794;9.928;2024-02-14T16:07:45;15.50;99.90
6468;DHT22;3267;48.794;9.928;2024-02-14T16:10:10;15.60;99.90
6468;DHT22;3267;48.794;9.928;2024-02-14T16:12:36;16.20;99.90
6468;DHT22;3267;48.794;9.928;2024-02-14T16:15:02;15.50;99.90
6468;DHT22;3267;48.794;9.928;2024-02-14T16:17:29;15.50;99.90
6468;DHT22;3267;48.794;9.928;2024-02-14T16:19:54;16.40;99.90
6468;DHT22;3267;48.794;9.928;2024-02-14T16:22:23;15.40;99.90
6468;DHT22;3267;48.794;9.928;2024-02-14T16:24:49;15.40;99.90
6468;DHT22;3267;48.794;9.928;2024-02-14T16:27:17;16.50;99.90
6468;DHT22;3267;48.794;9.928;2024-02-14T16:29:43;15.40;99.90
6468;DHT22;3267;48.794;9.928;2024-02-14T16:32:08;15.40;99.90
6468;DHT22;3267;48.794;9.928;2024-02-14T16:34:34;15.40;99.90
6468;DHT22;3267;48.794;9.928;2024-02-14T16:37:00;15.40;99.90
6468;DHT22;3267;48.794;9.928;2024-02-14T16:39:26;15.80;99.90
6468;DHT22;3267;48.794;9.928;2024-02-14T16:41:51;15.70;99.90
6468;DHT22;3267;48.794;9.928;2024-02-14T16:44:17;15.40;99.90
6468;DHT22;3267;48.794;9.928;2024-02-14T16:46:43;16.50;99.90
6468;DHT22;3267;48.794;9.928;2024-02-14T16:49:08;15.70;99.90
6468;DHT22;3267;48.794;9.928;2024-02-14T16:51:36;15.30;99.90
6468;DHT22;3267;48.794;9.928;2024-02-14T16:54:02;15.30;99.90
6468;DHT22;3267;48.794;9.928;2024-02-14T16:56:28;15.20;99.90
6468;DHT22;3267;48.794;9.928;2024-02-14T16:58:59;15.20;99.90
6468;DHT22;3267;48.794;9.928;2024-02-14T17:01:25;15.20;99.90
6468;DHT22;3267;48.794;9.928;2024-02-14T17:03:51;16.20;99.90
6468;DHT22;3267;48.794;9.928;2024-02-14T17:06:17;15.30;99.90
6468;DHT22;3267;48.794;9.928;2024-02-14T17:08:43;15.50;99.90
6468;DHT22;3267;48.794;9.928;2024-02-14T17:11:14;16.30;99.90
6468;DHT22;3267;48.794;9.928;2024-02-14T17:13:42;15.50;99.90
6468;DHT22;3267;48.794;9.928;2024-02-14T17:16:09;15.40;99.90
6468;DHT22;3267;48.794;9.928;2024-02-14T17:18:34;15.50;99.90
6468;DHT22;3267;48.794;9.928;2024-02-14T17:21:00;15.90;99.90
6468;DHT22;3267;48.794;9.928;2024-02-14T17:23:26;15.30;99.90
6468;DHT22;3267;48.794;9.928;2024-02-14T17:25:51;15.60;99.90
6468;DHT22;3267;48.794;9.928;2024-02-14T17:28:19;15.40;99.90
6468;DHT22;3267;48.794;9.928;2024-02-14T17:30:48;15.40;99.90
6468;DHT22;3267;48.794;9.928;2024-02-14T17:33:16;15.50;99.90
6468;DHT22;3267;48.794;9.928;2024-02-14T17:35:42;15.40;99.90
6468;DHT22;3267;48.794;9.928;2024-02-14T17:38:08;15.40;99.90
6468;DHT22;3267;48.794;9.928;2024-02-14T17:40:34;15.40;99.90
6468;DHT22;3267;48.794;9.928;2024-02-14T17:42:59;15.50;99.90
6468;DHT22;3267;48.794;9.928;2024-02-14T17:45:25;15.40;99.90
6468;DHT22;3267;48.794;9.928;2024-02-14T17:47:51;15.50;99.90
6468;DHT22;3267;48.794;9.928;2024-02-14T17:50:16;15.40;99.90
6468;DHT22;3267;48.794;9.928;2024-02-14T17:52:42;15.50;99.90
6468;DHT22;3267;48.794;9.928;2024-02-14T17:55:10;15.40;99.90
6468;DHT22;3267;48.794;9.928;2024-02-14T17:57:37;15.30;99.90
6468;DHT22;3267;48.794;9.928;2024-02-14T18:00:03;15.20;99.90
6468;DHT22;3267;48.794;9.928;2024-02-14T18:02:30;15.20;99.90
6468;DHT22;3267;48.794;9.928;2024-02-14T18:04:56;15.10;99.90
6468;DHT22;3267;48.794;9.928;2024-02-14T18:07:22;15.10;99.90
6468;DHT22;3267;48.794;9.928;2024-02-14T18:09:47;15.10;99.90
6468;DHT22;3267;48.794;9.928;2024-02-14T18:12:13;16.70;99.90
6468;DHT22;3267;48.794;9.928;2024-02-14T18:14:39;17.10;99.90
6468;DHT22;3267;48.794;9.928;2024-02-14T18:17:04;15.10;99.90
6468;DHT22;3267;48.794;9.928;2024-02-14T18:19:31;15.10;99.90
6468;DHT22;3267;48.794;9.928;2024-02-14T18:21:57;15.10;99.90
6468;DHT22;3267;48.794;9.928;2024-02-14T18:24:22;15.10;99.90
6468;DHT22;3267;48.794;9.928;2024-02-14T18:26:48;15.20;99.90
6468;DHT22;3267;48.794;9.928;2024-02-14T18:29:14;15.10;99.90
6468;DHT22;3267;48.794;9.928;2024-02-14T18:31:40;15.20;99.90
6468;DHT22;3267;48.794;9.928;2024-02-14T18:34:06;15.10;99.90
6468;DHT22;3267;48.794;9.928;2024-02-14T18:36:33;15.10;99.90
6468;DHT22;3267;48.794;9.928;2024-02-14T18:38:59;15.00;99.90
6468;DHT22;3267;48.794;9.928;2024-02-14T18:41:25;15.00;99.90
6468;DHT22;3267;48.794;9.928;2024-02-14T18:43:51;15.80;99.90
6468;DHT22;3267;48.794;9.928;2024-02-14T18:46:16;15.00;99.90
6468;DHT22;3267;48.794;9.928;2024-02-14T18:48:42;15.00;99.90
6468;DHT22;3267;48.794;9.928;2024-02-14T18:51:07;14.90;99.90
6468;DHT22;3267;48.794;9.928;2024-02-14T18:53:33;14.90;99.90
6468;DHT22;3267;48.794;9.928;2024-02-14T18:55:59;14.90;99.90
6468;DHT22;3267;48.794;9.928;2024-02-14T18:58:24;14.90;99.90
6468;DHT22;3267;48.794;9.928;2024-02-14T19:00:50;14.80;99.90
6468;DHT22;3267;48.794;9.928;2024-02-14T19:03:17;14.80;99.90
6468;DHT22;3267;48.794;9.928;2024-02-14T19:05:43;14.80;99.90
6468;DHT22;3267;48.794;9.928;2024-02-14T19:08:09;14.80;99.90
6468;DHT22;3267;48.794;9.928;2024-02-14T19:10:35;14.80;99.90
6468;DHT22;3267;48.794;9.928;2024-02-14T19:13:01;14.80;99.90
6468;DHT22;3267;48.794;9.928;2024-02-14T19:15:27;14.80;99.90
6468;DHT22;3267;48.794;9.928;2024-02-14T19:17:52;14.80;99.90
6468;DHT22;3267;48.794;9.928;2024-02-14T19:20:18;14.80;99.90
6468;DHT22;3267;48.794;9.928;2024-02-14T19:22:45;14.80;99.90
6468;DHT22;3267;48.794;9.928;2024-02-14T19:25:11;14.80;99.90
6468;DHT22;3267;48.794;9.928;2024-02-14T19:27:37;14.80;99.90
6468;DHT22;3267;48.794;9.928;2024-02-14T19:30:03;14.90;99.90
6468;DHT22;3267;48.794;9.928;2024-02-14T19:32:30;14.80;99.90
6468;DHT22;3267;48.794;9.928;2024-02-14T19:34:56;14.80;99.90
6468;DHT22;3267;48.794;9.928;2024-02-14T19:37:22;14.80;99.90
6468;DHT22;3267;48.794;9.928;2024-02-14T19:39:50;14.80;99.90
6468;DHT22;3267;48.794;9.928;2024-02-14T19:42:15;16.90;99.90
6468;DHT22;3267;48.794;9.928;2024-02-14T19:44:41;14.90;99.90
6468;DHT22;3267;48.794;9.928;2024-02-14T19:47:06;14.90;99.90
6468;DHT22;3267;48.794;9.928;2024-02-14T19:49:32;14.80;99.90
6468;DHT22;3267;48.794;9.928;2024-02-14T19:51:58;14.90;99.90
6468;DHT22;3267;48.794;9.928;2024-02-14T19:54:24;14.80;99.90
6468;DHT22;3267;48.794;9.928;2024-02-14T19:56:50;14.90;99.90
6468;DHT22;3267;48.794;9.928;2024-02-14T19:59:16;15.60;99.90
6468;DHT22;3267;48.794;9.928;2024-02-14T20:01:41;15.00;99.90
6468;DHT22;3267;48.794;9.928;2024-02-14T20:04:07;15.00;99.90
6468;DHT22;3267;48.794;9.928;2024-02-14T20:06:35;15.00;99.90
6468;DHT22;3267;48.794;9.928;2024-02-14T20:09:01;14.90;99.90
6468;DHT22;3267;48.794;9.928;2024-02-14T20:11:27;14.90;99.90
6468;DHT22;3267;48.794;9.928;2024-02-14T20:13:53;14.80;99.90
6468;DHT22;3267;48.794;9.928;2024-02-14T20:16:20;14.90;99.90
6468;DHT22;3267;48.794;9.928;2024-02-14T20:18:46;15.00;99.90
6468;DHT22;3267;48.794;9.928;2024-02-14T20:21:12;16.80;99.90
6468;DHT22;3267;48.794;9.928;2024-02-14T20:23:39;14.90;99.90
6468;DHT22;3267;48.794;9.928;2024-02-14T20:26:05;14.90;99.90
6468;DHT22;3267;48.794;9.928;2024-02-14T20:28:30;14.80;99.90
6468;DHT22;3267;48.794;9.928;2024-02-14T20:30:57;14.70;99.90
6468;DHT22;3267;48.794;9.928;2024-02-14T20:33:22;16.90;99.90
6468;DHT22;3267;48.794;9.928;2024-02-14T20:35:51;15.10;99.90
6468;DHT22;3267;48.794;9.928;2024-02-14T20:38:17;15.00;99.90
6468;DHT22;3267;48.794;9.928;2024-02-14T20:40:43;17.30;99.90
6468;DHT22;3267;48.794;9.928;2024-02-14T20:43:08;17.70;99.90
6468;DHT22;3267;48.794;9.928;2024-02-14T20:45:34;15.20;99.90
6468;DHT22;3267;48.794;9.928;2024-02-14T20:48:01;15.50;99.90
6468;DHT22;3267;48.794;9.928;2024-02-14T20:50:28;15.00;99.90
6468;DHT22;3267;48.794;9.928;2024-02-14T20:52:55;17.20;99.90
6468;DHT22;3267;48.794;9.928;2024-02-14T20:55:20;15.40;99.90
6468;DHT22;3267;48.794;9.928;2024-02-14T20:57:47;14.80;99.90
6468;DHT22;3267;48.794;9.928;2024-02-14T21:00:13;15.60;99.90
6468;DHT22;3267;48.794;9.928;2024-02-14T21:02:42;15.20;99.90
6468;DHT22;3267;48.794;9.928;2024-02-14T21:05:09;16.70;99.90
6468;DHT22;3267;48.794;9.928;2024-02-14T21:07:34;15.10;99.90
6468;DHT22;3267;48.794;9.928;2024-02-14T21:10:00;15.40;99.90
6468;DHT22;3267;48.794;9.928;2024-02-14T21:12:26;15.20;99.90
6468;DHT22;3267;48.794;9.928;2024-02-14T21:14:51;15.00;99.90
6468;DHT22;3267;48.794;9.928;2024-02-14T21:17:17;14.90;99.90
6468;DHT22;3267;48.794;9.928;2024-02-14T21:19:43;14.90;99.90
6468;DHT22;3267;48.794;9.928;2024-02-14T21:22:09;15.00;99.90
6468;DHT22;3267;48.794;9.928;2024-02-14T21:24:34;14.60;99.90
6468;DHT22;3267;48.794;9.928;2024-02-14T21:27:00;15.10;99.90
6468;DHT22;3267;48.794;9.928;2024-02-14T21:29:25;15.00;99.90
6468;DHT22;3267;48.794;9.928;2024-02-14T21:31:51;14.80;99.90
6468;DHT22;3267;48.794;9.928;2024-02-14T21:34:17;15.00;99.90
6468;DHT22;3267;48.794;9.928;2024-02-14T21:36:46;15.20;99.90